Friday, November 17, 2017, 7:37 PM GMT
Back to Local

CWPD, Parc Des Laurentid

Location: , , Canada Lat: 47.567
Local Time: 7:37 PM GMT (19:37 GMT) Lon: -71.233
Time Zone: GMT Elev: 2634 ft

Show me the last for .
Show Coded

Time T Td Feel RH Dir Speed Gust Alt SLP Vis Weather Sky Remarks
2017-11-17 18:00 13 10 4 88 40° 6 - - 29.81 0 None
2017-11-17 16:00 13 10 2 89 20° 8 - - 29.81 0 None
2017-11-17 15:00 14 12 -3 91 10° 10 20 - 29.81 0 None
2017-11-17 14:00 14 12 -3 90 20° 10 18 - 29.81 0 None
2017-11-17 13:00 15 15 -2 98 10° 10 18 - 29.81 0 None
2017-11-17 12:00 17 17 0 98 20° 12 21 - 29.79 0 None
2017-11-17 11:00 19 19 4 100 10° 9 17 - 29.75 0 None
2017-11-17 10:00 23 22 7 98 360° 13 21 - 29.71 0 None
2017-11-17 09:00 26 24 11 92 20° 10 23 - 29.67 0 None
2017-11-17 08:00 27 25 13 94 10° 9 18 - 29.65 0 None
2017-11-17 07:00 28 27 20 96 20° 8 - - 29.64 0 None
2017-11-17 06:00 33 31 27 92 360° 6 - - 29.60 0 None
2017-11-17 05:00 31 31 - 100 180° 2 - - 29.59 0 None
2017-11-17 04:00 31 31 28 100 200° 3 - - 29.60 0 None
2017-11-17 03:00 30 30 - 100 210° 1 - - 29.62 0 None
2017-11-17 02:00 31 31 26 100 220° 5 - - 29.64 0 None
2017-11-17 01:00 31 31 27 100 210° 3 - - 29.65 0 None
2017-11-17 00:00 31 31 25 100 200° 6 - - 29.65 0 None
2017-11-16 23:00 31 31 27 100 190° 3 - - 29.65 0 None
2017-11-16 22:00 30 30 25 100 180° 5 - - 29.65 0 None
2017-11-16 21:00 30 30 25 100 180° 5 - - 29.65 0 1-hr Precip Total: 0.08"
2017-11-16 20:00 30 30 24 100 190° 6 - - 29.66 0 None

Support USWX by starting your Amazon purchase here.